Latest Weather Observations for Ferny Creek

IDV60801

Issued at 11:02 am EST Friday 31 July 2015 (issued every 30 minutes, with the page automatically refreshed every 10 minutes)

About weather observations | Map of weather stations | Latest weather observations for VIC | Other Formats
Station Details ID: 086266 Name: FERNY CREEK Lat: -37.87 Lon: 145.35 Height: 512.9 m
Data from the previous 72 hours. | See also: Recent months at Ferny Creek
Date/Time
EST
Temp
°C
App
Temp
°C
Dew
Point
Rel
Hum
%
Delta-T
°C
Wind Press
QNH
hPa
Press
MSL
hPa
Rain
since 9 am
mm
Dir
 
Spd
km/h
Gust
km/h
Spd
kts
Gust
kts
31/11:00am 5.3 2.4 2.5 82 1.2 NW 7 13 4 7 1020.4 1021.3 0.0
31/10:30am 5.8 3.5 2.8 81 1.3 NW 4 7 2 4 1020.4 1021.3 0.0
31/10:00am 5.8 3.2 3.3 84 1.1 NW 6 9 3 5 1020.2 1021.1 0.0
31/09:30am 4.8 2.6 3.1 89 0.7 NW 4 7 2 4 1020.2 1021.1 0.0
31/09:00am 4.5 1.9 3.3 92 0.5 NW 6 9 3 5 1020.1 1021.0 3.0
31/08:30am 3.5 0.8 2.9 96 0.3 NW 6 11 3 6 1020.0 1020.9 3.0
31/08:00am 3.0 0.6 2.4 96 0.2 WNW 4 7 2 4 1019.8 1020.6 3.0
31/07:30am 2.7 1.0 2.1 96 0.2 CALM 0 4 0 2 1019.4 1020.2 3.0
31/07:00am 2.9 0.5 2.3 96 0.2 NW 4 6 2 3 1019.0 1019.8 3.0
31/06:30am 2.7 0.7 2.1 96 0.2 NW 2 4 1 2 1018.6 1019.5 3.0
31/06:00am 2.6 0.9 2.0 96 0.2 CALM 0 0 0 0 1018.4 1019.3 3.0
31/05:30am 2.7 0.7 2.1 96 0.2 W 2 7 1 4 1018.3 1019.2 3.0
31/05:00am 2.6 0.5 1.9 95 0.3 W 2 2 1 1 1018.1 1018.9 3.0
31/04:30am 3.0 1.0 2.3 95 0.3 W 2 6 1 3 1017.9 1018.7 3.0
31/04:00am 3.7 1.8 3.1 96 0.3 W 2 6 1 3 1017.8 1018.6 3.0
31/03:30am 3.6 1.3 3.0 96 0.3 WNW 4 6 2 3 1017.7 1018.5 3.0
31/03:00am 3.9 2.1 3.3 96 0.3 W 2 6 1 3 1017.8 1018.6 3.0
31/02:30am 3.8 1.6 3.1 95 0.3 WNW 4 7 2 4 1018.0 1018.8 3.0
31/02:00am 4.6 2.5 4.0 96 0.3 NW 4 13 2 7 1017.8 1018.6 3.0
31/01:30am 4.9 3.3 4.3 96 0.3 W 2 6 1 3 1017.6 1018.4 3.0
31/01:00am 5.0 3.4 4.4 96 0.3 WNW 2 6 1 3 1017.6 1018.4 3.0
31/12:30am 5.3 4.1 4.7 96 0.3 CALM 0 2 0 1 1017.6 1018.4 3.0
31/12:00am 5.4 3.9 4.8 96 0.3 WNW 2 4 1 2 1017.6 1018.4 3.0
 
Date/Time
EST
Temp
°C
App
Temp
°C
Dew
Point
Rel
Hum
%
Delta-T
°C
Wind Press
QNH
hPa
Press
MSL
hPa
Rain
since 9 am
mm
Dir
 
Spd
km/h
Gust
km/h
Spd
kts
Gust
kts
30/11:30pm 5.5 4.0 4.9 96 0.3 NNW 2 6 1 3 1017.4 1018.2 3.0
30/11:00pm 5.6 3.7 5.0 96 0.3 W 4 11 2 6 1017.1 1017.9 3.0
30/10:30pm 5.6 3.3 5.0 96 0.3 WNW 6 19 3 10 1017.0 1017.8 2.8
30/10:00pm 5.6 3.3 4.9 95 0.3 WNW 6 13 3 7 1016.5 1017.3 2.6
30/09:30pm 5.5 3.2 4.6 94 0.4 WNW 6 17 3 9 1016.3 1017.1 1.6
30/09:00pm 5.6 3.0 4.2 91 0.6 NNW 7 32 4 17 1015.6 1016.4 0.8
30/08:30pm 6.5 3.4 3.7 82 1.2 NNW 9 24 5 13 1015.1 1015.9 0.0
30/08:00pm 6.8 2.8 2.9 76 1.7 N 13 24 7 13 1014.6 1015.4 0.0
30/07:30pm 6.9 2.8 2.4 73 1.9 NNW 13 26 7 14 1014.4 1015.2 0.0
30/07:00pm 7.0 2.8 1.9 70 2.1 N 13 37 7 20 1013.5 1014.3 0.0
30/06:30pm 7.3 2.7 1.4 66 2.5 N 15 39 8 21 1013.1 1013.8 0.0
30/06:00pm 7.6 2.9 1.2 64 2.7 N 15 35 8 19 1012.4 1013.2 0.0
30/05:30pm 7.2 2.7 1.9 69 2.2 NNE 15 37 8 20 1011.7 1012.5 0.0
30/05:00pm 6.9 2.7 1.6 69 2.2 N 13 37 7 20 1011.5 1012.2 0.0
30/04:30pm 6.8 2.3 1.9 71 2.1 NNE 15 35 8 19 1011.9 1012.7 0.0
30/04:00pm 6.9 2.0 2.0 71 2.1 NNE 17 32 9 17 1012.0 1012.8 0.0
30/03:30pm 6.6 2.5 2.5 75 1.7 N 13 37 7 20 1013.1 1013.8 0.0
30/03:00pm 6.9 2.8 2.2 72 2.0 N 13 26 7 14 1013.4 1014.2 0.0
30/02:30pm 6.7 1.9 2.6 75 1.8 N 17 32 9 17 1013.2 1013.9 0.0
30/02:00pm 6.7 1.5 2.6 75 1.8 NNE 19 43 10 23 1013.5 1014.3 0.0
30/01:30pm 6.7 2.3 2.8 76 1.7 N 15 35 8 19 1014.8 1015.5 0.0
30/01:00pm 6.9 2.1 2.6 74 1.8 N 17 41 9 22 1015.4 1016.2 0.0
30/12:30pm 6.9 2.5 2.6 74 1.8 N 15 37 8 20 1016.0 1016.8 0.0
30/12:00pm 7.0 2.2 2.7 74 1.8 N 17 35 9 19 1016.6 1017.5 0.0
30/11:30am 7.0 2.2 2.7 74 1.8 N 17 39 9 21 1017.4 1018.2 0.0
30/11:00am 7.0 2.2 2.7 74 1.8 N 17 39 9 21 1018.4 1019.3 0.0
30/10:30am 6.6 1.8 2.7 76 1.7 N 17 32 9 17 1019.3 1020.1 0.0
30/10:00am 6.9 2.4 2.2 72 2.0 N 15 35 8 19 1019.4 1020.2 0.0
30/09:30am 6.8 1.5 1.7 70 2.1 N 19 46 10 25 1019.4 1020.2 0.0
30/09:00am 6.2 1.3 1.9 74 1.8 N 17 32 9 17 1019.7 1020.5 0.0
30/08:30am 6.0 1.8 1.9 75 1.7 N 13 37 7 20 1020.0 1020.9 0.0
30/08:00am 5.5 1.4 2.3 80 1.3 N 13 37 7 20 1019.9 1020.8 0.0
30/07:30am 5.1 1.0 2.5 83 1.1 N 13 30 7 16 1020.0 1020.9 0.0
30/07:00am 5.1 1.0 2.5 83 1.1 N 13 33 7 18 1020.3 1021.2 0.0
30/06:30am 5.2 1.5 2.2 81 1.3 N 11 30 6 16 1020.7 1021.6 0.0
30/06:00am 5.2 1.1 2.0 80 1.3 N 13 43 7 23 1020.8 1021.7 0.0
30/05:30am 5.2 1.4 1.9 79 1.4 N 11 19 6 10 1021.0 1021.8 0.0
30/05:00am 5.3 1.5 2.0 79 1.4 N 11 24 6 13 1021.1 1021.9 0.0
30/04:30am 5.1 1.3 1.9 80 1.3 N 11 33 6 18 1021.6 1022.5 0.0
30/04:00am 5.4 1.7 2.1 79 1.4 N 11 24 6 13 1021.9 1022.8 0.0
30/03:30am 5.6 1.8 1.9 77 1.5 N 11 26 6 14 1021.8 1022.7 0.0
30/03:00am 5.3 1.5 2.0 79 1.4 N 11 24 6 13 1022.4 1023.3 0.0
30/02:30am 5.2 1.8 2.0 80 1.3 N 9 19 5 10 1022.8 1023.7 0.0
30/02:00am 5.4 1.7 2.2 80 1.3 N 11 20 6 11 1023.5 1024.4 0.0
30/01:30am 5.5 1.8 2.2 79 1.4 N 11 26 6 14 1023.8 1024.7 0.0
30/01:00am 5.7 2.4 2.2 78 1.5 N 9 22 5 12 1024.2 1025.1 0.0
30/12:30am 5.8 2.1 2.4 79 1.4 N 11 24 6 13 1024.9 1025.9 0.0
30/12:00am 5.4 2.5 2.6 82 1.2 N 7 20 4 11 1025.4 1026.3 0.0
 
Date/Time
EST
Temp
°C
App
Temp
°C
Dew
Point
Rel
Hum
%
Delta-T
°C
Wind Press
QNH
hPa
Press
MSL
hPa
Rain
since 9 am
mm
Dir
 
Spd
km/h
Gust
km/h
Spd
kts
Gust
kts
29/11:30pm 5.6 2.0 2.9 83 1.1 N 11 30 6 16 1025.8 1026.7 0.0
29/11:00pm 5.7 2.9 2.9 82 1.2 N 7 22 4 12 1026.0 1026.9 0.0
29/10:30pm 5.5 2.6 2.8 83 1.1 N 7 13 4 7 1026.2 1027.1 0.0
29/10:00pm 5.9 2.6 2.7 80 1.4 N 9 24 5 13 1026.4 1027.3 0.0
29/09:30pm 6.1 2.8 2.6 78 1.5 N 9 19 5 10 1026.4 1027.3 0.0
29/09:00pm 6.0 3.1 2.6 79 1.4 N 7 19 4 10 1026.6 1027.6 0.0
29/08:30pm 6.1 3.2 2.6 78 1.5 N 7 19 4 10 1026.9 1027.9 0.0
29/08:00pm 6.1 3.2 2.4 77 1.6 N 7 19 4 10 1027.2 1028.1 0.0
29/07:30pm 6.2 3.4 2.1 75 1.7 N 6 9 3 5 1027.4 1028.3 0.0
29/07:00pm 6.0 3.2 2.3 77 1.5 N 6 15 3 8 1027.4 1028.3 0.0
29/06:30pm 6.1 3.3 1.8 74 1.8 N 6 15 3 8 1027.2 1028.1 0.0
29/06:00pm 5.8 2.9 1.7 75 1.7 N 6 13 3 7 1027.4 1028.3 0.0
29/05:30pm 5.9 2.8 1.4 73 1.9 N 7 13 4 7 1027.3 1028.2 0.0
29/05:00pm 6.3 3.4 1.2 70 2.1 N 6 11 3 6 1027.5 1028.4 0.0
29/04:30pm 6.7 3.6 1.2 68 2.3 N 7 15 4 8 1027.5 1028.4 0.0
29/04:00pm 7.3 4.2 1.4 66 2.4 N 7 19 4 10 1027.7 1028.6 0.0
29/03:30pm 7.6 5.3 2.5 70 2.2 N 4 9 2 5 1027.9 1028.8 0.0
29/03:00pm 7.4 4.5 2.5 71 2.1 N 7 15 4 8 1028.2 1029.2 0.0
29/02:30pm 7.8 5.1 2.9 71 2.1 NNW 6 22 3 12 1028.5 1029.5 0.0
29/02:00pm 8.1 5.1 1.7 64 2.7 N 7 20 4 11 1028.8 1029.8 0.0
29/01:30pm 8.3 5.7 3.4 71 2.2 N 6 11 3 6 1029.0 1030.0 0.0
29/01:00pm 8.2 5.5 2.9 69 2.3 NNW 6 13 3 7 1029.5 1030.4 0.0
29/12:30pm 8.6 5.9 2.8 67 2.5 N 6 15 3 8 1030.3 1031.3 0.0
29/12:00pm 9.1 6.6 3.7 69 2.4 NNW 6 17 3 9 1031.0 1032.0 0.0
29/11:30am 8.7 6.1 4.1 73 2.1 N 7 17 4 9 1031.4 1032.3 0.0
29/11:00am 8.0 5.5 3.5 73 2.0 NNW 6 11 3 6 1031.5 1032.5 0.0
29/10:30am 7.7 5.5 3.2 73 2.0 NNW 4 9 2 5 1032.0 1033.0 0.0
29/10:00am 7.8 5.6 3.5 74 1.9 N 4 9 2 5 1032.1 1033.1 0.0
29/09:30am 7.9 5.5 2.4 68 2.4 NNW 4 9 2 5 1032.3 1033.3 0.0
29/09:00am 7.2 4.9 2.5 72 2.0 N 4 7 2 4 1032.4 1033.4 0.6
29/08:30am 6.2 4.6 2.3 76 1.6 CALM 0 6 0 3 1032.4 1033.4 0.6
29/08:00am 5.7 4.1 2.5 80 1.3 CALM 0 0 0 0 1032.1 1033.1 0.6
29/07:30am 5.8 4.0 3.3 84 1.1 NW 2 4 1 2 1031.9 1032.9 0.6
29/07:00am 5.9 4.8 4.9 93 0.4 CALM 0 2 0 1 1032.0 1033.0 0.6
29/06:30am 5.9 4.8 5.0 94 0.4 CALM 0 0 0 0 1032.0 1033.0 0.6
29/06:00am 5.9 4.8 5.0 94 0.4 CALM 0 0 0 0 1031.8 1032.8 0.6
29/05:30am 5.9 4.8 5.0 94 0.4 CALM 0 0 0 0 1031.6 1032.6 0.6
29/05:00am 6.0 4.9 5.1 94 0.4 CALM 0 0 0 0 1031.6 1032.6 0.6
29/04:30am 6.0 4.5 5.1 94 0.4 NW 2 4 1 2 1031.9 1032.9 0.6
29/04:00am 6.0 4.9 5.1 94 0.4 CALM 0 0 0 0 1031.8 1032.8 0.6
29/03:30am 6.1 4.7 5.4 95 0.3 NW 2 4 1 2 1032.0 1033.0 0.6
29/03:00am 6.2 5.2 5.5 95 0.3 CALM 0 0 0 0 1032.1 1033.1 0.6
29/02:30am 6.2 5.2 5.5 95 0.3 CALM 0 0 0 0 1032.4 1033.4 0.6
29/02:00am 6.2 5.2 5.5 95 0.3 CALM 0 2 0 1 1032.2 1033.2 0.6
29/01:30am 6.3 5.3 5.6 95 0.3 CALM 0 0 0 0 1032.0 1033.0 0.6
29/01:00am 6.5 5.2 5.8 95 0.3 NNW 2 6 1 3 1032.6 1033.6 0.6
29/12:30am 6.5 5.2 5.8 95 0.3 NW 2 7 1 4 1032.9 1033.9 0.6
29/12:00am 6.6 5.6 5.7 94 0.4 CALM 0 0 0 0 1033.0 1034.1 0.6
 
Date/Time
EST
Temp
°C
App
Temp
°C
Dew
Point
Rel
Hum
%
Delta-T
°C
Wind Press
QNH
hPa
Press
MSL
hPa
Rain
since 9 am
mm
Dir
 
Spd
km/h
Gust
km/h
Spd
kts
Gust
kts
28/11:30pm 6.6 5.6 5.6 93 0.5 CALM 0 2 0 1 1032.9 1033.9 0.6
28/11:00pm 6.6 5.6 5.4 92 0.5 CALM 0 7 0 4 1033.1 1034.2 0.6
28/10:30pm 6.5 5.4 5.3 92 0.5 CALM 0 0 0 0 1033.2 1034.3 0.6
28/10:00pm 6.5 5.5 5.5 93 0.5 CALM 0 0 0 0 1033.4 1034.4 0.6
28/09:30pm 6.3 5.2 5.1 92 0.5 CALM 0 0 0 0 1033.5 1034.5 0.6
28/09:00pm 6.2 4.7 5.0 92 0.5 SW 2 6 1 3 1033.4 1034.4 0.6
28/08:30pm 6.3 5.2 5.1 92 0.5 CALM 0 0 0 0 1033.4 1034.4 0.6
28/08:00pm 6.2 5.1 5.2 93 0.4 CALM 0 2 0 1 1033.4 1034.4 0.6
28/07:30pm 6.0 4.1 5.0 93 0.4 WSW 4 9 2 5 1033.4 1034.4 0.6
28/07:00pm 5.5 3.9 4.6 94 0.4 SW 2 6 1 3 1033.2 1034.3 0.6
28/06:30pm 5.2 3.2 4.2 93 0.4 SW 4 6 2 3 1033.1 1034.2 0.6
28/06:00pm 5.4 3.4 4.4 93 0.4 SW 4 4 2 2 1033.0 1034.1 0.6
28/05:30pm 6.0 4.4 4.6 91 0.6 WSW 2 4 1 2 1032.8 1033.8 0.6
28/05:00pm 7.2 5.3 5.0 86 1.0 WSW 4 9 2 5 1032.8 1033.8 0.6
28/04:30pm 8.0 6.1 4.8 80 1.5 SW 4 11 2 6 1032.7 1033.7 0.6
28/04:00pm 9.6 7.9 6.1 79 1.6 WSW 4 7 2 4 1032.7 1033.7 0.6
28/03:30pm 9.3 7.6 5.9 79 1.6 WSW 4 6 2 3 1032.6 1033.6 0.6
28/03:00pm 9.0 7.3 6.1 82 1.4 SW 4 9 2 5 1032.6 1033.6 0.6
28/02:30pm 8.7 7.1 6.5 86 1.0 WSW 4 6 2 3 1032.5 1033.5 0.6
28/02:00pm 8.4 6.7 5.9 84 1.2 WSW 4 6 2 3 1032.7 1033.7 0.6
28/01:30pm 8.9 7.4 6.9 87 1.0 SW 4 9 2 5 1032.8 1033.8 0.6
28/01:00pm 8.2 6.6 6.5 89 0.8 SSW 4 7 2 4 1033.1 1034.2 0.6
28/12:30pm 7.7 6.1 6.2 90 0.7 WSW 4 6 2 3 1033.4 1034.4 0.6
28/12:00pm 7.3 5.7 6.4 94 0.4 WSW 4 9 2 5 1033.8 1034.8 0.6
28/11:30am 7.3 5.8 6.9 97 0.2 SW 4 9 2 5 1034.2 1035.2 0.6

Other Formats:

Comma delimited format used in spreadsheet applications
http://www.bom.gov.au/fwo/IDV60801/IDV60801.94872.axf

JavaScript Object Notation format (JSON) in row-major order
http://www.bom.gov.au/fwo/IDV60801/IDV60801.94872.json